Time;durP1;ratioP1;P1;durP2;ratioP2;P2;SDS_P1;SDS_P2;PMS_P1;PMS_P2;Temp;Humidity;BMP_temperature;BMP_pressure;BME280_temperature;BME280_humidity;BME280_pressure;Samples;Min_cycle;Max_cycle;Signal;HPM_P1;HPM_P2
2023/08/24 00:01:37;;;;;;;4.75;2.47;;;;;;;26.15;46.27;101964.78;5026472;28;20056;-38
2023/08/24 00:04:04;;;;;;;3.42;2.10;;;;;;;26.13;45.89;101958.66;5025771;28;20054;-37
2023/08/24 00:06:31;;;;;;;3.65;2.17;;;;;;;26.11;46.24;101955.28;5026334;28;20053;-37
2023/08/24 00:08:59;;;;;;;5.70;2.65;;;;;;;26.09;46.46;101950.91;5022919;28;20049;-38
2023/08/24 00:11:25;;;;;;;4.13;2.38;;;;;;;26.07;46.41;101952.09;5026636;28;20067;-38
2023/08/24 00:13:53;;;;;;;4.28;2.20;;;;;;;26.05;46.23;101949.56;5023221;28;20473;-38
2023/08/24 00:16:20;;;;;;;3.20;2.10;;;;;;;26.03;46.60;101948.88;5027998;28;20081;-37
2023/08/24 00:18:47;;;;;;;3.35;2.10;;;;;;;26.03;46.59;101945.31;5023642;28;20170;-38
2023/08/24 00:21:16;;;;;;;3.05;1.95;;;;;;;26.01;46.53;101928.34;5026796;28;20046;-37
2023/08/24 00:23:44;;;;;;;3.55;1.95;;;;;;;25.99;46.67;101917.66;5026272;28;20309;-38
2023/08/24 00:26:10;;;;;;;5.53;2.33;;;;;;;25.97;46.63;101914.31;5023322;28;20383;-38
2023/08/24 00:28:37;;;;;;;2.92;2.00;;;;;;;25.96;46.67;101917.19;5023224;28;20092;-37
2023/08/24 00:31:04;;;;;;;3.72;2.53;;;;;;;25.95;46.79;101910.06;5024616;28;20107;-38
2023/08/24 00:33:30;;;;;;;3.53;2.20;;;;;;;25.93;46.91;101912.97;5018180;28;20046;-39
2023/08/24 00:36:01;;;;;;;3.38;2.20;;;;;;;25.92;46.66;101903.09;5022310;28;20064;-37
2023/08/24 00:38:28;;;;;;;2.70;1.77;;;;;;;25.90;46.70;101897.03;5020660;28;20041;-38
2023/08/24 00:40:59;;;;;;;3.15;1.80;;;;;;;25.89;46.92;101898.06;5022007;28;20104;-38
2023/08/24 00:43:28;;;;;;;4.63;2.00;;;;;;;25.90;46.76;101915.19;5015892;28;20063;-39
2023/08/24 00:45:58;;;;;;;3.13;1.90;;;;;;;25.88;46.90;101914.50;5023746;28;20131;-38
2023/08/24 00:48:28;;;;;;;3.60;2.03;;;;;;;25.87;46.80;101921.81;5026158;28;20107;-39
2023/08/24 00:50:56;;;;;;;3.78;1.77;;;;;;;25.87;47.02;101923.69;5022486;28;20045;-39
2023/08/24 00:53:26;;;;;;;3.47;2.00;;;;;;;25.84;46.83;101914.03;5019520;28;20084;-37
2023/08/24 00:55:53;;;;;;;3.65;2.03;;;;;;;25.83;47.09;101923.22;5019614;28;20054;-38
2023/08/24 00:58:21;;;;;;;2.72;2.00;;;;;;;25.81;46.89;101919.84;5020846;28;20065;-37
2023/08/24 01:00:52;;;;;;;2.47;1.95;;;;;;;25.81;47.09;101914.41;5025252;28;20112;-37
2023/08/24 01:03:19;;;;;;;3.53;2.00;;;;;;;25.79;47.30;101906.41;5026982;28;20049;-37
2023/08/24 01:05:45;;;;;;;2.80;1.85;;;;;;;25.78;47.33;101907.44;5029608;28;20064;-37
2023/08/24 01:08:13;;;;;;;3.17;1.85;;;;;;;25.77;47.11;101904.88;5027803;28;20133;-38
2023/08/24 01:11:02;;;;;;;2.58;1.70;;;;;;;25.74;47.31;101907.97;5027166;28;20430;-37
2023/08/24 01:13:41;;;;;;;2.13;1.50;;;;;;;25.76;47.16;101908.63;5029506;28;20050;-39
2023/08/24 01:16:26;;;;;;;3.30;2.08;;;;;;;25.74;47.25;101911.53;5031462;28;20631;-37
2023/08/24 01:19:00;;;;;;;1.85;1.38;;;;;;;25.74;47.34;101908.81;5027137;28;20330;-37
2023/08/24 01:21:28;;;;;;;2.70;1.42;;;;;;;25.74;47.25;101905.25;5028677;28;20073;-37
2023/08/24 01:24:03;;;;;;;3.28;1.92;;;;;;;25.72;47.32;101915.44;5027098;28;20046;-37
2023/08/24 01:26:30;;;;;;;2.08;1.50;;;;;;;25.71;47.30;101913.75;5027261;28;20049;-37
2023/08/24 01:28:56;;;;;;;2.33;1.70;;;;;;;25.71;47.18;101924.59;5027476;28;20057;-37
2023/08/24 01:31:24;;;;;;;2.20;1.45;;;;;;;25.71;47.17;101921.91;5028997;28;20042;-37
2023/08/24 01:33:51;;;;;;;2.10;1.40;;;;;;;25.70;47.33;101926.47;5025809;28;20349;-37
2023/08/24 01:36:17;;;;;;;3.45;1.70;;;;;;;25.68;47.17;101908.66;5026718;28;20504;-37
2023/08/24 01:38:53;;;;;;;2.30;1.30;;;;;;;25.68;47.37;101897.81;5027799;28;20176;-37
2023/08/24 01:41:28;;;;;;;2.75;1.40;;;;;;;25.68;47.46;101897.81;5025474;28;20049;-38
2023/08/24 01:43:58;;;;;;;3.35;1.90;;;;;;;25.68;47.26;101908.66;5028604;28;20140;-38
2023/08/24 01:46:26;;;;;;;3.10;1.40;;;;;;;25.66;47.38;101900.72;5030372;28;20107;-38
2023/08/24 01:48:54;;;;;;;2.30;1.40;;;;;;;25.66;47.27;101895.28;5026254;28;20061;-38
2023/08/24 01:51:23;;;;;;;2.88;1.83;;;;;;;25.67;47.34;101890.69;5024811;28;20398;-39
2023/08/24 01:53:50;;;;;;;2.13;1.50;;;;;;;25.66;47.38;101883.56;5027155;28;20128;-39
2023/08/24 01:56:17;;;;;;;2.15;1.38;;;;;;;25.66;47.37;101891.72;5026139;28;20049;-38
2023/08/24 01:58:43;;;;;;;3.17;1.63;;;;;;;25.65;47.44;101899.03;5028492;28;20142;-38
2023/08/24 02:01:10;;;;;;;3.45;1.60;;;;;;;25.64;47.53;101912.75;5027285;28;20046;-39
2023/08/24 02:03:38;;;;;;;1.63;1.20;;;;;;;25.64;47.25;101905.47;5027603;28;20056;-38
2023/08/24 02:06:07;;;;;;;1.88;1.35;;;;;;;25.65;47.38;101892.72;5026255;28;20137;-38
2023/08/24 02:08:34;;;;;;;2.22;1.45;;;;;;;25.63;47.16;101871.19;5028911;28;20068;-38
2023/08/24 02:11:01;;;;;;;1.90;1.40;;;;;;;25.63;47.29;101857.63;5027427;28;20048;-38
2023/08/24 02:13:28;;;;;;;2.08;1.45;;;;;;;25.62;47.35;101860.53;5024939;28;20523;-39
2023/08/24 02:16:05;;;;;;;2.97;1.58;;;;;;;25.61;47.53;101856.97;5025330;28;20132;-38
2023/08/24 02:18:32;;;;;;;3.60;1.40;;;;;;;25.61;47.68;101859.69;5021599;28;20068;-39
2023/08/24 02:20:59;;;;;;;2.67;1.27;;;;;;;25.60;47.57;101852.53;5023701;28;21665;-39
2023/08/24 02:23:26;;;;;;;2.17;1.30;;;;;;;25.59;47.41;101851.69;5022575;28;20041;-38
2023/08/24 02:25:52;;;;;;;2.55;1.45;;;;;;;25.58;47.68;101855.44;5019686;28;20389;-39
2023/08/24 02:28:19;;;;;;;2.03;1.58;;;;;;;25.58;47.66;101846.47;5024116;28;20404;-38
2023/08/24 02:30:45;;;;;;;2.40;1.30;;;;;;;25.56;47.97;101830.31;5023445;28;20107;-37
2023/08/24 02:33:12;;;;;;;2.55;1.23;;;;;;;25.56;47.73;101819.47;5025256;28;20137;-38
2023/08/24 02:35:39;;;;;;;1.83;0.95;;;;;;;25.56;47.36;101813.19;5022992;28;20146;-38
2023/08/24 02:38:06;;;;;;;2.78;1.40;;;;;;;25.55;47.65;101806.09;5020026;28;20053;-39
2023/08/24 02:40:32;;;;;;;2.55;1.20;;;;;;;25.53;47.21;101806.28;5021813;28;20058;-39
2023/08/24 02:42:59;;;;;;;1.85;1.50;;;;;;;25.53;47.77;101798.13;5022796;28;20164;-38
2023/08/24 02:45:25;;;;;;;2.83;1.30;;;;;;;25.52;47.42;101790.16;5019138;28;20056;-39
2023/08/24 02:47:52;;;;;;;1.67;1.17;;;;;;;25.51;47.88;101781.16;5021468;28;20219;-38
2023/08/24 02:50:19;;;;;;;1.85;1.20;;;;;;;25.50;47.39;101794.94;5025116;28;20053;-37
2023/08/24 02:52:45;;;;;;;1.52;1.00;;;;;;;25.48;47.60;101800.53;5023299;28;20426;-38
2023/08/24 02:55:12;;;;;;;1.77;1.10;;;;;;;25.48;48.07;101803.22;5028418;28;20295;-39
2023/08/24 02:57:39;;;;;;;1.42;1.00;;;;;;;25.47;47.79;101811.56;5026134;28;20108;-39
2023/08/24 03:00:06;;;;;;;1.25;1.00;;;;;;;25.46;47.96;101810.72;5028124;28;20049;-38
2023/08/24 03:02:33;;;;;;;1.88;1.25;;;;;;;25.46;47.77;101805.31;5022618;28;20077;-38
2023/08/24 03:05:00;;;;;;;1.50;1.20;;;;;;;25.44;48.10;101803.78;5026500;28;20052;-37
2023/08/24 03:07:27;;;;;;;2.55;1.23;;;;;;;25.43;47.73;101794.78;5024000;28;20049;-38
2023/08/24 03:09:54;;;;;;;1.33;1.10;;;;;;;25.41;47.67;101794.16;5027229;28;20404;-37
2023/08/24 03:12:20;;;;;;;1.63;1.00;;;;;;;25.39;47.94;101807.03;5026164;28;20338;-38
2023/08/24 03:14:47;;;;;;;2.50;1.40;;;;;;;25.40;47.95;101797.03;5025279;28;20124;-37
2023/08/24 03:17:13;;;;;;;1.55;0.93;;;;;;;25.37;48.44;101792.81;5024999;28;20105;-37
2023/08/24 03:19:40;;;;;;;2.63;1.40;;;;;;;25.37;48.09;101790.09;5028384;28;20469;-38
2023/08/24 03:22:07;;;;;;;2.17;1.13;;;;;;;25.36;47.92;101789.22;5030932;28;20488;-37
2023/08/24 03:24:34;;;;;;;1.73;1.08;;;;;;;25.36;48.07;101783.81;5024389;28;20053;-37
2023/08/24 03:27:00;;;;;;;1.77;1.38;;;;;;;25.34;48.20;101785.03;5018586;28;20057;-37
2023/08/24 03:29:27;;;;;;;1.88;1.20;;;;;;;25.33;48.23;101775.19;5020665;28;20049;-37
2023/08/24 03:31:54;;;;;;;2.05;1.30;;;;;;;25.32;48.06;101760.75;5022776;28;20143;-37
2023/08/24 03:34:21;;;;;;;1.70;1.13;;;;;;;25.30;48.24;101760.09;5021833;28;20069;-37
2023/08/24 03:36:48;;;;;;;1.50;0.80;;;;;;;25.30;48.23;101748.41;5023467;28;20504;-37
2023/08/24 03:39:15;;;;;;;2.42;1.20;;;;;;;25.29;47.95;101749.44;5023391;28;20130;-37
2023/08/24 03:41:41;;;;;;;1.27;1.00;;;;;;;25.26;48.06;101750.63;5022932;28;20107;-36
2023/08/24 03:44:08;;;;;;;1.00;0.80;;;;;;;25.26;48.27;101750.63;5022699;28;20140;-38
2023/08/24 03:46:35;;;;;;;1.60;1.15;;;;;;;25.26;48.37;101752.50;5022901;28;20354;-37
2023/08/24 03:49:02;;;;;;;1.85;1.10;;;;;;;25.24;48.23;101746.41;5024961;28;20136;-37
2023/08/24 03:51:28;;;;;;;1.67;0.98;;;;;;;25.23;48.47;101752.88;5022409;28;20141;-37
2023/08/24 03:53:55;;;;;;;1.40;1.00;;;;;;;25.22;48.22;101754.75;5025214;28;20049;-36
2023/08/24 03:56:21;;;;;;;1.33;0.93;;;;;;;25.21;48.34;101755.78;5030320;28;21102;-37
2023/08/24 03:58:49;;;;;;;2.83;1.08;;;;;;;25.21;48.22;101760.34;5031999;28;20049;-37
2023/08/24 04:01:15;;;;;;;2.08;0.98;;;;;;;25.20;48.24;101755.94;5020291;28;20042;-37
2023/08/24 04:03:42;;;;;;;1.45;1.02;;;;;;;25.20;48.29;101756.78;5025507;28;20397;-38
2023/08/24 04:06:09;;;;;;;1.33;0.90;;;;;;;25.19;48.73;101759.69;5028533;28;20095;-38
2023/08/24 04:08:35;;;;;;;1.23;0.80;;;;;;;25.19;48.45;101762.38;5024091;28;20124;-37
2023/08/24 04:11:02;;;;;;;1.40;0.80;;;;;;;25.18;48.19;101758.00;5023112;28;20513;-37
2023/08/24 04:13:29;;;;;;;2.53;0.90;;;;;;;25.18;48.54;101755.28;5026916;28;20046;-37
2023/08/24 04:15:55;;;;;;;1.30;0.88;;;;;;;25.17;48.54;101764.44;5024337;28;20111;-37
2023/08/24 04:18:22;;;;;;;1.70;0.93;;;;;;;25.16;48.20;101769.00;5019910;28;20448;-36
2023/08/24 04:20:52;;;;;;;2.15;0.88;;;;;;;25.13;48.32;101774.81;5024914;28;20077;-37
2023/08/24 04:23:26;;;;;;;2.13;1.20;;;;;;;25.13;48.33;101772.09;5022569;28;20046;-37
2023/08/24 04:25:54;;;;;;;1.75;1.10;;;;;;;25.14;48.25;101770.22;5021320;28;20119;-37
2023/08/24 04:28:20;;;;;;;1.63;1.00;;;;;;;25.13;48.38;101768.50;5023525;28;20041;-36
2023/08/24 04:30:54;;;;;;;1.40;1.00;;;;;;;25.10;48.48;101767.88;5023417;28;20049;-37
2023/08/24 04:33:20;;;;;;;2.15;1.00;;;;;;;25.10;48.56;101767.88;5034760;28;20357;-37
2023/08/24 04:35:50;;;;;;;1.83;0.93;;;;;;;25.10;48.34;101767.03;5026172;28;20175;-37
2023/08/24 04:38:17;;;;;;;0.90;0.70;;;;;;;25.09;48.46;101765.34;5022275;28;20060;-37
2023/08/24 04:40:55;;;;;;;1.85;1.00;;;;;;;25.07;49.06;101760.03;5022265;28;20056;-37
2023/08/24 04:43:23;;;;;;;2.20;1.10;;;;;;;25.08;48.73;101760.88;5020903;28;20046;-37
2023/08/24 04:45:54;;;;;;;1.25;0.90;;;;;;;25.07;48.78;101767.34;5024432;28;20080;-37
2023/08/24 04:48:22;;;;;;;0.65;0.50;;;;;;;25.06;48.74;101763.78;5022873;28;20053;-37
2023/08/24 04:50:49;;;;;;;1.67;1.00;;;;;;;25.06;48.57;101763.78;5020103;28;20426;-37
2023/08/24 04:53:18;;;;;;;1.55;0.93;;;;;;;25.06;48.78;101766.50;5022052;28;20069;-37
2023/08/24 04:55:45;;;;;;;1.30;0.93;;;;;;;25.05;48.46;101766.69;5020751;28;20065;-37
2023/08/24 04:58:13;;;;;;;1.33;1.02;;;;;;;25.05;48.43;101759.38;5021252;28;20053;-37
2023/08/24 05:00:39;;;;;;;1.40;1.08;;;;;;;25.04;48.81;101754.97;5022456;28;20057;-38
2023/08/24 05:03:06;;;;;;;1.15;0.80;;;;;;;25.05;48.71;101750.41;5022471;28;20433;-37
2023/08/24 05:05:35;;;;;;;1.00;0.70;;;;;;;25.05;48.72;101756.69;5020262;28;20051;-37
2023/08/24 05:08:10;;;;;;;1.17;0.90;;;;;;;25.06;48.62;101752.09;5017070;28;20041;-37
2023/08/24 05:10:39;;;;;;;1.63;1.00;;;;;;;25.07;48.52;101753.78;5023695;28;20059;-38
2023/08/24 05:13:06;;;;;;;1.98;1.15;;;;;;;25.08;48.97;101742.72;5021349;28;20057;-38
2023/08/24 05:15:32;;;;;;;0.80;0.70;;;;;;;25.09;48.72;101727.34;5023942;28;20057;-38
2023/08/24 05:17:59;;;;;;;2.63;1.00;;;;;;;25.09;48.79;101714.63;5020760;28;20103;-38
2023/08/24 05:20:26;;;;;;;1.52;0.80;;;;;;;25.10;48.45;101712.75;5019565;28;20054;-37
2023/08/24 05:22:54;;;;;;;1.20;0.80;;;;;;;25.11;48.71;101709.03;5020206;28;20049;-37
2023/08/24 05:25:22;;;;;;;1.73;1.13;;;;;;;25.11;48.81;101707.16;5020807;28;20060;-37
2023/08/24 05:27:49;;;;;;;1.85;0.88;;;;;;;25.13;48.67;101717.84;5019198;28;20045;-38
2023/08/24 05:30:16;;;;;;;1.10;0.80;;;;;;;25.12;48.66;101708.00;5021143;28;20137;-37
2023/08/24 05:32:43;;;;;;;2.08;0.88;;;;;;;25.13;48.39;101700.69;5016117;28;20057;-39
2023/08/24 05:35:10;;;;;;;1.08;0.88;;;;;;;25.15;48.25;101691.34;5019746;28;20445;-38
2023/08/24 05:37:37;;;;;;;1.77;1.00;;;;;;;25.17;48.46;101683.06;5016853;28;20088;-37
2023/08/24 05:40:05;;;;;;;0.80;0.75;;;;;;;25.19;48.35;101687.25;5018341;28;20055;-38
2023/08/24 05:42:31;;;;;;;0.75;0.70;;;;;;;25.21;48.62;101692.53;5015878;28;20045;-38
2023/08/24 05:44:58;;;;;;;1.10;0.80;;;;;;;25.22;48.48;101695.03;5014296;28;20103;-37
2023/08/24 05:47:25;;;;;;;1.45;1.05;;;;;;;25.25;48.38;101705.53;5018826;28;20618;-37
2023/08/24 05:49:51;;;;;;;2.10;0.90;;;;;;;25.25;48.33;101693.84;5022660;28;20050;-37
2023/08/24 05:52:18;;;;;;;1.77;1.00;;;;;;;25.26;48.56;101699.09;5024115;28;20103;-37
2023/08/24 05:54:44;;;;;;;2.80;1.10;;;;;;;25.25;48.44;101693.84;5026070;28;20111;-37
2023/08/24 05:57:11;;;;;;;2.53;1.35;;;;;;;25.26;48.48;101692.81;5024867;28;20133;-37
2023/08/24 05:59:37;;;;;;;1.90;1.15;;;;;;;25.24;48.55;101686.72;5026247;28;20104;-37
2023/08/24 06:02:05;;;;;;;2.17;1.15;;;;;;;25.25;48.42;101685.72;5026356;28;20640;-38
2023/08/24 06:04:31;;;;;;;2.20;1.50;;;;;;;25.24;48.24;101678.56;5026506;28;20041;-37
2023/08/24 06:06:58;;;;;;;1.70;1.13;;;;;;;25.23;48.79;101676.88;5029778;28;20053;-37
2023/08/24 06:09:24;;;;;;;4.68;1.02;;;;;;;25.23;48.23;101671.47;5027019;28;20078;-38
2023/08/24 06:11:51;;;;;;;2.10;1.35;;;;;;;25.23;48.34;101660.59;5019285;28;20073;-37
2023/08/24 06:14:17;;;;;;;2.22;1.20;;;;;;;25.24;48.80;101659.56;5020189;28;20428;-38
2023/08/24 06:16:44;;;;;;;2.08;1.20;;;;;;;25.25;48.56;101661.28;5024896;28;20076;-37
2023/08/24 06:19:11;;;;;;;2.22;1.20;;;;;;;25.26;48.20;101652.13;5022882;28;20053;-37
2023/08/24 06:21:37;;;;;;;1.55;1.13;;;;;;;25.29;48.83;101657.19;5025241;28;20716;-38
2023/08/24 06:24:04;;;;;;;3.05;1.50;;;;;;;25.31;48.72;101657.81;5023829;28;20506;-38
2023/08/24 06:26:30;;;;;;;3.72;1.50;;;;;;;25.33;48.59;101650.38;5023214;28;20078;-37
2023/08/24 06:28:57;;;;;;;4.20;1.73;;;;;;;25.34;48.77;101647.44;5024312;28;20057;-37
2023/08/24 06:31:24;;;;;;;4.80;1.83;;;;;;;25.36;48.61;101648.09;5023016;28;20127;-37
2023/08/24 06:33:50;;;;;;;4.30;1.98;;;;;;;25.38;48.54;101644.38;5021457;28;20456;-37
2023/08/24 06:36:17;;;;;;;2.17;1.50;;;;;;;25.40;48.53;101636.88;5023404;28;20049;-37
2023/08/24 06:38:44;;;;;;;3.97;1.98;;;;;;;25.40;48.73;101629.59;5021554;28;20077;-38
2023/08/24 06:41:12;;;;;;;4.65;1.85;;;;;;;25.41;48.66;101631.28;5025975;28;20071;-37
2023/08/24 06:43:39;;;;;;;3.50;1.70;;;;;;;25.41;48.39;101623.16;5022625;28;20056;-38
2023/08/24 06:46:09;;;;;;;5.68;2.20;;;;;;;25.42;48.50;101622.13;5022776;28;20064;-38
2023/08/24 06:48:37;;;;;;;5.25;2.47;;;;;;;25.43;48.58;101617.53;5024671;28;20045;-37
2023/08/24 06:51:03;;;;;;;9.90;5.15;;;;;;;25.45;48.47;101615.47;5022017;28;20042;-36
2023/08/24 06:53:30;;;;;;;10.57;5.78;;;;;;;25.45;48.76;101616.31;5019963;28;20057;-37
2023/08/24 06:55:58;;;;;;;22.25;7.97;;;;;;;25.45;49.06;101615.47;5023867;28;20065;-36
2023/08/24 06:58:24;;;;;;;17.23;7.65;;;;;;;25.44;49.66;101625.47;5018450;28;20041;-37
2023/08/24 07:00:51;;;;;;;14.40;7.32;;;;;;;25.45;49.65;101629.91;5022563;28;20131;-36
2023/08/24 07:03:18;;;;;;;16.30;7.03;;;;;;;25.44;50.20;101620.03;5023302;28;20073;-36
2023/08/24 07:05:46;;;;;;;13.05;7.55;;;;;;;25.45;50.25;101627.19;5021838;28;20049;-36
2023/08/24 07:08:13;;;;;;;11.63;6.85;;;;;;;25.45;50.43;101618.16;5020002;28;20397;-36
2023/08/24 07:10:40;;;;;;;14.90;7.95;;;;;;;25.44;50.88;101611.91;5019823;28;20049;-37
2023/08/24 07:13:07;;;;;;;28.67;11.48;;;;;;;25.44;50.89;101605.63;5020770;28;20103;-37
2023/08/24 07:15:34;;;;;;;15.15;9.02;;;;;;;25.45;50.59;101599.16;5023641;28;20046;-36
2023/08/24 07:18:02;;;;;;;18.48;9.93;;;;;;;25.45;50.61;101605.47;5020363;28;20054;-36
2023/08/24 07:20:29;;;;;;;19.23;10.70;;;;;;;25.45;51.23;101610.03;5019348;28;20045;-37
2023/08/24 07:22:57;;;;;;;17.83;10.85;;;;;;;25.44;51.09;101611.91;5017847;28;20137;-37
2023/08/24 07:25:24;;;;;;;18.83;9.60;;;;;;;25.44;51.47;101609.19;5020580;28;20065;-36
2023/08/24 07:27:50;;;;;;;18.58;10.20;;;;;;;25.45;51.30;101610.91;5028832;28;20053;-36
2023/08/24 07:30:17;;;;;;;16.10;9.18;;;;;;;25.44;51.54;101617.34;5023366;28;20099;-37
2023/08/24 07:33:00;;;;;;;14.60;8.95;;;;;;;25.45;51.68;101608.19;5020257;28;20049;-36
2023/08/24 07:35:27;;;;;;;15.35;7.78;;;;;;;25.45;51.70;101610.91;5023597;28;20042;-37
2023/08/24 07:37:54;;;;;;;10.40;6.85;;;;;;;25.44;51.82;101595.63;5020060;28;20116;-37
2023/08/24 07:40:20;;;;;;;12.82;7.32;;;;;;;25.46;52.39;101604.44;5017737;28;20061;-37
2023/08/24 07:42:50;;;;;;;15.75;7.03;;;;;;;25.46;52.06;101601.72;5022104;28;20336;-36
2023/08/24 07:45:17;;;;;;;18.95;10.27;;;;;;;25.45;52.24;101604.59;5021067;28;20082;-36
2023/08/24 07:47:44;;;;;;;15.85;7.72;;;;;;;25.46;52.50;101609.88;5027824;28;20045;-36
2023/08/24 07:50:11;;;;;;;15.20;8.45;;;;;;;25.48;52.33;101601.53;5023783;28;20057;-37
2023/08/24 07:52:38;;;;;;;14.57;8.52;;;;;;;25.47;51.93;101597.97;5023224;28;20141;-37
2023/08/24 07:55:07;;;;;;;15.43;8.50;;;;;;;25.48;52.25;101602.38;5023350;28;20060;-36
2023/08/24 07:57:34;;;;;;;17.50;9.30;;;;;;;25.49;52.40;101605.94;5023228;28;20078;-36
2023/08/24 08:00:02;;;;;;;18.27;8.35;;;;;;;25.50;52.00;101602.19;5024210;28;20089;-36
2023/08/24 08:02:35;;;;;;;15.57;7.93;;;;;;;25.51;52.28;101599.28;5022361;28;20045;-37
2023/08/24 08:05:01;;;;;;;14.82;7.90;;;;;;;25.52;52.07;101595.53;5021201;28;20064;-36
2023/08/24 08:07:28;;;;;;;16.48;8.25;;;;;;;25.53;52.11;101583.66;5030218;28;20414;-36
2023/08/24 08:09:56;;;;;;;13.15;7.45;;;;;;;25.53;52.11;101585.53;5023330;28;20103;-36
2023/08/24 08:12:23;;;;;;;15.07;7.40;;;;;;;25.53;51.51;101575.53;5022247;28;20068;-37
2023/08/24 08:14:49;;;;;;;11.70;6.53;;;;;;;25.54;51.82;101577.22;5026343;28;20054;-36
2023/08/24 08:17:16;;;;;;;10.55;6.75;;;;;;;25.55;51.60;101575.34;5022497;28;20428;-36
2023/08/24 08:19:43;;;;;;;10.75;6.25;;;;;;;25.56;51.55;101577.84;5026789;28;20525;-37
2023/08/24 08:22:09;;;;;;;10.88;6.60;;;;;;;25.57;51.44;101573.28;5019093;28;20080;-37
2023/08/24 08:24:36;;;;;;;14.88;6.50;;;;;;;25.58;51.46;101564.09;5025495;28;20477;-37
2023/08/24 08:27:03;;;;;;;14.82;7.03;;;;;;;25.58;51.55;101562.22;5023533;28;20072;-36
2023/08/24 08:29:29;;;;;;;10.85;6.70;;;;;;;25.59;51.56;101566.63;5023027;28;20041;-37
2023/08/24 08:31:56;;;;;;;9.10;5.53;;;;;;;25.61;51.55;101561.03;5023708;28;20260;-36
2023/08/24 08:34:23;;;;;;;13.13;5.82;;;;;;;25.62;51.67;101561.88;5023586;28;20084;-36
2023/08/24 08:36:49;;;;;;;12.55;5.32;;;;;;;25.62;51.24;101557.28;5025662;28;20042;-37
2023/08/24 08:39:17;;;;;;;14.95;6.40;;;;;;;25.64;51.19;101549.75;5030986;28;20044;-37
2023/08/24 08:41:45;;;;;;;11.32;5.43;;;;;;;25.64;51.30;101544.34;5022069;28;20073;-37
2023/08/24 08:44:14;;;;;;;9.20;5.30;;;;;;;25.66;51.31;101541.44;5027177;28;20517;-36
2023/08/24 08:46:42;;;;;;;13.40;5.75;;;;;;;25.66;51.15;101539.56;5019939;28;20100;-36
2023/08/24 08:49:10;;;;;;;11.57;5.30;;;;;;;25.67;51.53;101535.00;5026307;28;20045;-37
2023/08/24 08:51:37;;;;;;;9.52;5.47;;;;;;;25.69;51.37;101532.91;5028067;28;20099;-36
2023/08/24 08:54:05;;;;;;;9.80;5.47;;;;;;;25.69;51.39;101525.63;5028972;28;20049;-37
2023/08/24 08:56:32;;;;;;;10.38;5.32;;;;;;;25.70;51.72;101524.59;5026732;28;20617;-37
2023/08/24 08:59:00;;;;;;;11.10;5.13;;;;;;;25.71;51.31;101523.56;5024622;28;20053;-37
2023/08/24 09:01:27;;;;;;;8.90;5.38;;;;;;;25.74;51.57;101522.34;5022660;28;20045;-36
2023/08/24 09:03:54;;;;;;;11.73;5.75;;;;;;;25.75;51.53;101515.88;5019239;28;20046;-36
2023/08/24 09:06:22;;;;;;;10.50;6.22;;;;;;;25.76;51.67;101518.41;5022150;28;20068;-36
2023/08/24 09:08:52;;;;;;;11.32;6.35;;;;;;;25.77;51.56;101511.09;5024060;28;20049;-37
2023/08/24 09:11:19;;;;;;;12.55;5.93;;;;;;;25.80;51.88;101516.19;5028528;28;20054;-36
2023/08/24 09:13:46;;;;;;;13.48;5.78;;;;;;;25.79;51.50;101509.91;5028810;28;20148;-37
2023/08/24 09:16:15;;;;;;;9.02;5.05;;;;;;;25.82;51.34;101495.13;5024266;28;20045;-36
2023/08/24 09:18:47;;;;;;;12.18;5.40;;;;;;;25.82;51.64;101495.13;5023635;28;20081;-36
2023/08/24 09:21:15;;;;;;;11.57;5.53;;;;;;;25.84;51.79;101490.31;5029159;28;20483;-36
2023/08/24 09:23:52;;;;;;;10.55;5.90;;;;;;;25.84;51.86;101493.88;5018262;28;20483;-37
2023/08/24 09:26:33;;;;;;;8.77;5.45;;;;;;;25.86;51.91;101487.44;5028771;28;20081;-37
2023/08/24 09:29:11;;;;;;;12.45;4.45;;;;;;;25.88;51.65;101478.06;5028111;28;20072;-37
2023/08/24 09:31:38;;;;;;;10.13;4.78;;;;;;;25.90;51.74;101483.31;5029399;28;20104;-36
2023/08/24 09:34:06;;;;;;;10.77;5.20;;;;;;;25.90;51.71;101492.28;5030716;28;20429;-36
2023/08/24 09:36:35;;;;;;;8.63;4.90;;;;;;;25.91;51.77;101493.13;5027732;28;20081;-36
2023/08/24 09:39:06;;;;;;;10.30;5.35;;;;;;;25.91;51.81;101493.97;5027314;28;20830;-36
2023/08/24 09:41:50;;;;;;;13.18;5.72;;;;;;;25.90;51.84;101489.59;5024566;28;20133;-36
2023/08/24 09:44:18;;;;;;;8.95;4.72;;;;;;;25.92;51.51;101498.38;5024982;28;20049;-36
2023/08/24 09:46:45;;;;;;;8.43;5.03;;;;;;;25.94;51.71;101487.34;5030117;28;20046;-36
2023/08/24 09:49:12;;;;;;;10.98;4.93;;;;;;;25.94;51.68;101485.44;5032181;28;20053;-36
2023/08/24 09:51:41;;;;;;;9.00;5.43;;;;;;;25.95;51.52;101481.69;5028556;28;20081;-37
2023/08/24 09:54:10;;;;;;;8.32;4.90;;;;;;;25.96;51.55;101490.69;5030472;28;20060;-36
2023/08/24 09:56:38;;;;;;;10.30;4.45;;;;;;;25.97;51.57;101486.94;5030473;28;20127;-36
2023/08/24 09:59:18;;;;;;;11.77;5.30;;;;;;;25.97;52.03;101481.50;5025571;28;20050;-38
2023/08/24 10:01:47;;;;;;;9.55;4.93;;;;;;;25.96;51.82;101488.81;5030228;28;20095;-36
2023/08/24 10:04:17;;;;;;;8.25;4.70;;;;;;;25.96;51.80;101488.81;5027023;28;20376;-38
2023/08/24 10:06:49;;;;;;;11.63;5.05;;;;;;;25.98;51.95;101491.34;5024732;28;20104;-37
2023/08/24 10:09:25;;;;;;;15.32;4.57;;;;;;;25.97;51.55;101493.22;5023946;28;20081;-38
2023/08/24 10:12:02;;;;;;;12.45;5.47;;;;;;;25.97;52.16;101504.09;5028356;28;20049;-37
2023/08/24 10:14:47;;;;;;;8.02;4.68;;;;;;;25.97;52.27;101501.38;5026588;28;20063;-38
2023/08/24 10:17:14;;;;;;;14.15;5.10;;;;;;;25.98;51.97;101505.78;5027492;28;20433;-38
2023/08/24 10:19:43;;;;;;;12.05;4.38;;;;;;;25.98;52.20;101502.22;5023495;28;20137;-37
2023/08/24 10:22:10;;;;;;;10.48;4.63;;;;;;;25.98;52.23;101492.19;5027096;28;20341;-38
2023/08/24 10:24:37;;;;;;;8.95;5.25;;;;;;;25.97;52.36;101498.66;5025843;28;20049;-38
2023/08/24 10:27:05;;;;;;;7.75;4.50;;;;;;;25.97;52.29;101503.22;5025080;28;20052;-38
2023/08/24 10:29:32;;;;;;;13.90;5.28;;;;;;;25.96;52.25;101496.94;5028195;28;20077;-38
2023/08/24 10:31:59;;;;;;;7.10;4.63;;;;;;;25.95;52.41;101492.56;5024274;28;20421;-37
2023/08/24 10:34:26;;;;;;;9.15;4.82;;;;;;;25.95;52.52;101481.69;5021816;28;20065;-37
2023/08/24 10:36:53;;;;;;;11.95;4.63;;;;;;;25.95;52.45;101478.13;5022401;28;20139;-38
2023/08/24 10:39:27;;;;;;;8.95;4.53;;;;;;;25.94;52.31;101482.72;5024260;28;20050;-38
2023/08/24 10:41:54;;;;;;;9.15;4.70;;;;;;;25.96;52.18;101479.81;5023424;28;20058;-38
2023/08/24 10:44:37;;;;;;;12.93;6.72;;;;;;;25.94;53.10;101474.59;5018490;28;20046;-38
2023/08/24 10:47:14;;;;;;;12.48;7.15;;;;;;;25.95;52.89;101470.00;5019200;28;20084;-38
2023/08/24 10:49:56;;;;;;;11.35;6.53;;;;;;;25.95;53.02;101464.56;5021052;28;20103;-38
2023/08/24 10:52:33;;;;;;;14.00;6.55;;;;;;;25.95;53.44;101459.13;5022703;28;20377;-37
2023/08/24 10:55:04;;;;;;;14.35;7.22;;;;;;;25.95;53.63;101459.13;5022472;28;20444;-38
2023/08/24 10:57:39;;;;;;;12.88;6.95;;;;;;;25.96;53.94;101458.91;5023735;28;20045;-37
2023/08/24 11:00:05;;;;;;;16.48;7.60;;;;;;;25.97;53.91;101459.75;5024753;28;20137;-38
2023/08/24 11:02:51;;;;;;;14.27;7.47;;;;;;;25.95;54.22;101459.97;5023467;28;20050;-37
2023/08/24 11:05:25;;;;;;;11.90;7.28;;;;;;;25.97;53.75;101466.06;5024668;28;20045;-37
2023/08/24 11:07:56;;;;;;;14.68;8.63;;;;;;;25.97;54.09;101452.47;5021866;28;20414;-37
2023/08/24 11:10:24;;;;;;;19.63;8.77;;;;;;;25.98;54.12;101448.72;5024762;28;20053;-38
2023/08/24 11:13:04;;;;;;;12.63;7.35;;;;;;;25.97;54.40;101440.75;5021306;28;20054;-37
2023/08/24 11:15:41;;;;;;;11.75;7.80;;;;;;;26.00;54.08;101452.06;5020083;28;20049;-38
2023/08/24 11:18:22;;;;;;;13.77;7.68;;;;;;;26.00;54.30;101449.34;5021037;28;20045;-38
2023/08/24 11:21:02;;;;;;;16.45;9.30;;;;;;;26.01;54.30;101444.75;5021072;28;20922;-37
2023/08/24 11:23:29;;;;;;;16.88;7.97;;;;;;;26.01;54.11;101442.91;5021006;28;20138;-38
2023/08/24 11:25:58;;;;;;;12.30;7.88;;;;;;;26.02;54.05;101439.16;5022648;28;20049;-37
2023/08/24 11:28:27;;;;;;;13.88;7.72;;;;;;;26.02;53.99;101428.28;5021026;28;20052;-37